Time;durP1;ratioP1;P1;durP2;ratioP2;P2;SDS_P1;SDS_P2;PMS_P1;PMS_P2;Temp;Humidity;BMP_temperature;BMP_pressure;BME280_temperature;BME280_humidity;BME280_pressure;Samples;Min_cycle;Max_cycle;Signal;HPM_P1;HPM_P2
2023/12/21 00:00:37;;;;;;;3.15;1.90;;;;;;;7.82;58.46;100404.72;4933135;29;20082;-86
2023/12/21 00:03:06;;;;;;;3.80;2.08;;;;;;;7.82;58.27;100395.69;4920959;29;20062;-85
2023/12/21 00:05:34;;;;;;;5.43;2.28;;;;;;;7.84;58.54;100396.44;4924684;29;20774;-85
2023/12/21 00:08:04;;;;;;;3.15;1.88;;;;;;;7.85;58.67;100387.25;4919056;29;20122;-85
2023/12/21 00:10:33;;;;;;;4.68;2.22;;;;;;;7.82;58.33;100380.22;4938980;29;20042;-85
2023/12/21 00:13:01;;;;;;;3.42;2.10;;;;;;;7.85;58.40;100379.06;4924316;29;20039;-85
2023/12/21 00:15:29;;;;;;;3.78;2.10;;;;;;;7.87;58.31;100371.63;4928625;29;20074;-85
2023/12/21 00:17:58;;;;;;;4.03;2.28;;;;;;;7.86;58.39;100387.13;4918644;29;20044;-86
2023/12/21 00:20:26;;;;;;;3.42;2.05;;;;;;;7.87;58.58;100383.41;4918489;29;20050;-86
2023/12/21 00:22:54;;;;;;;3.83;2.08;;;;;;;7.88;58.52;100378.81;4916709;29;20654;-86
2023/12/21 00:25:24;;;;;;;3.95;2.35;;;;;;;7.89;58.55;100365.06;4919254;29;20099;-85
2023/12/21 00:27:52;;;;;;;4.05;2.30;;;;;;;7.90;58.75;100368.66;4924127;29;20840;-85
2023/12/21 00:30:21;;;;;;;3.42;2.22;;;;;;;7.89;58.41;100370.53;4927121;29;20044;-86
2023/12/21 00:32:49;;;;;;;3.70;2.30;;;;;;;7.90;58.84;100377.72;4925951;29;20087;-86
2023/12/21 00:35:18;;;;;;;3.83;2.28;;;;;;;7.92;58.74;100359.38;4918155;29;20083;-86
2023/12/21 00:37:46;;;;;;;4.13;2.40;;;;;;;7.92;58.95;100350.34;4917367;29;20048;-86
2023/12/21 00:40:15;;;;;;;4.43;2.40;;;;;;;7.94;58.55;100351.03;4914435;29;20666;-86
2023/12/21 00:42:46;;;;;;;3.70;2.55;;;;;;;7.94;58.79;100342.88;4917218;29;20055;-86
2023/12/21 00:45:14;;;;;;;3.65;2.60;;;;;;;7.94;58.41;100349.19;4933618;29;20056;-86
2023/12/21 00:47:42;;;;;;;4.43;2.60;;;;;;;7.93;58.73;100333.84;4914708;29;20517;-85
2023/12/21 00:50:11;;;;;;;3.97;2.53;;;;;;;7.98;58.56;100343.50;4918650;29;20127;-85
2023/12/21 00:52:39;;;;;;;4.50;2.65;;;;;;;7.98;58.88;100338.91;4922242;29;20043;-86
2023/12/21 00:55:08;;;;;;;3.83;2.60;;;;;;;7.99;58.41;100331.59;4916878;29;20070;-86
2023/12/21 00:57:37;;;;;;;4.03;2.67;;;;;;;7.99;58.74;100335.19;4917212;29;20048;-86
2023/12/21 01:00:08;;;;;;;4.53;2.50;;;;;;;8.01;58.54;100333.22;4918199;29;20060;-85
2023/12/21 01:02:36;;;;;;;4.40;2.70;;;;;;;7.99;58.63;100326.16;4915097;29;20044;-85
2023/12/21 01:05:06;;;;;;;4.90;2.67;;;;;;;8.01;58.88;100332.34;4919765;29;20048;-84
2023/12/21 01:07:34;;;;;;;5.00;2.60;;;;;;;7.99;58.98;100313.38;4928235;29;20071;-85
2023/12/21 01:10:05;;;;;;;4.38;2.67;;;;;;;8.02;58.85;100320.41;4917183;29;20044;-84
2023/12/21 01:12:33;;;;;;;4.72;2.67;;;;;;;8.02;58.68;100314.97;4917605;29;20083;-85
2023/12/21 01:15:02;;;;;;;4.70;2.55;;;;;;;8.00;58.68;100315.13;4926143;29;20047;-85
2023/12/21 01:17:33;;;;;;;3.83;2.63;;;;;;;8.04;58.83;100312.97;4921072;29;20058;-85
2023/12/21 01:20:01;;;;;;;4.32;2.55;;;;;;;8.03;58.80;100306.66;4917436;29;20040;-84
2023/12/21 01:22:29;;;;;;;3.53;2.40;;;;;;;8.03;59.05;100313.97;4935036;29;20037;-85
2023/12/21 01:24:58;;;;;;;3.80;2.72;;;;;;;8.02;58.71;100295.88;4920831;29;20465;-84
2023/12/21 01:27:26;;;;;;;5.22;3.13;;;;;;;8.05;58.72;100288.34;4922620;29;20043;-84
2023/12/21 01:30:00;;;;;;;5.78;2.75;;;;;;;8.03;58.71;100279.41;4921594;29;20032;-84
2023/12/21 01:32:28;;;;;;;4.63;2.50;;;;;;;8.06;58.72;100291.94;4924461;29;20050;-85
2023/12/21 01:34:58;;;;;;;4.70;2.90;;;;;;;8.09;58.82;100284.34;4923269;29;20560;-86
2023/12/21 01:37:26;;;;;;;4.53;2.88;;;;;;;8.06;58.78;100262.81;4924429;29;20465;-86
2023/12/21 01:39:55;;;;;;;4.38;2.75;;;;;;;8.09;59.07;100250.78;4953444;29;20032;-85
2023/12/21 01:42:23;;;;;;;5.35;3.20;;;;;;;8.08;58.85;100238.16;4941520;29;20073;-85
2023/12/21 01:44:51;;;;;;;4.32;3.00;;;;;;;8.10;58.95;100239.72;4943519;29;20075;-86
2023/12/21 01:47:19;;;;;;;3.88;2.85;;;;;;;8.10;58.83;100237.00;4920030;29;20611;-86
2023/12/21 01:49:49;;;;;;;4.25;3.08;;;;;;;8.11;58.99;100236.00;4917543;29;20044;-86
2023/12/21 01:52:20;;;;;;;5.00;3.00;;;;;;;8.12;59.07;100224.13;4923314;29;20040;-85
2023/12/21 01:54:49;;;;;;;4.43;3.10;;;;;;;8.13;58.94;100231.31;4919077;29;20139;-86
2023/12/21 01:57:18;;;;;;;4.68;2.97;;;;;;;8.13;59.11;100222.25;4919743;29;20063;-86
2023/12/21 01:59:46;;;;;;;4.28;2.90;;;;;;;8.15;58.95;100229.34;4922288;29;20050;-85
2023/12/21 02:02:14;;;;;;;5.15;3.10;;;;;;;8.15;58.90;100204.81;4918886;29;20050;-86
2023/12/21 02:04:42;;;;;;;5.25;3.05;;;;;;;8.14;58.86;100213.97;4919338;29;20048;-86
2023/12/21 02:07:11;;;;;;;4.38;3.13;;;;;;;8.16;59.23;100208.41;4918937;29;20044;-85
2023/12/21 02:09:41;;;;;;;3.97;2.88;;;;;;;8.17;58.96;100216.44;4917706;29;20099;-86
2023/12/21 02:12:09;;;;;;;4.47;2.88;;;;;;;8.16;59.14;100214.72;4920057;29;20043;-86
2023/12/21 02:14:37;;;;;;;4.10;2.80;;;;;;;8.18;59.11;100209.09;4930289;29;20040;-84
2023/12/21 02:17:09;;;;;;;5.10;2.55;;;;;;;8.19;58.94;100198.06;4922270;29;20067;-86
2023/12/21 02:19:39;;;;;;;4.43;2.75;;;;;;;8.18;58.91;100204.53;4918536;29;20409;-87
2023/12/21 02:22:08;;;;;;;5.07;2.50;;;;;;;8.20;59.15;100198.94;4919055;29;20524;-86
2023/12/21 02:24:38;;;;;;;3.60;2.60;;;;;;;8.22;59.02;100208.72;4918854;29;20111;-86
2023/12/21 02:27:06;;;;;;;4.30;2.88;;;;;;;8.22;59.10;100202.41;4916238;29;20521;-86
2023/12/21 02:29:35;;;;;;;4.18;2.28;;;;;;;8.20;58.88;100197.06;4917899;29;20412;-86
2023/12/21 02:32:03;;;;;;;4.32;2.67;;;;;;;8.20;59.04;100191.63;4915096;29;20083;-87
2023/12/21 02:34:31;;;;;;;3.88;2.50;;;;;;;8.22;59.33;100202.41;4922393;29;20138;-87
2023/12/21 02:37:00;;;;;;;3.15;1.80;;;;;;;8.21;59.04;100196.09;4919079;29;20047;-87
2023/12/21 02:39:28;;;;;;;4.60;2.45;;;;;;;8.21;59.30;100196.09;4918253;29;20057;-87
2023/12/21 02:41:59;;;;;;;3.03;2.13;;;;;;;8.24;58.85;100198.56;4922442;29;20044;-86
2023/12/21 02:44:28;;;;;;;3.33;2.10;;;;;;;8.23;59.02;100177.75;4916904;29;20537;-86
2023/12/21 02:46:57;;;;;;;3.00;1.77;;;;;;;8.23;59.08;100176.88;4908727;29;20047;-86
2023/12/21 02:49:25;;;;;;;3.97;2.15;;;;;;;8.22;59.08;100170.56;4916838;29;20050;-87
2023/12/21 02:51:55;;;;;;;3.42;2.00;;;;;;;8.23;59.12;100172.28;4917561;29;20075;-86
2023/12/21 02:54:23;;;;;;;2.78;1.90;;;;;;;8.23;59.08;100161.38;4918819;29;20051;-87
2023/12/21 02:56:51;;;;;;;4.90;2.00;;;;;;;8.23;58.95;100161.38;4917679;29;20047;-86
2023/12/21 02:59:21;;;;;;;3.70;1.60;;;;;;;8.24;58.84;100154.94;4915276;29;20139;-87
2023/12/21 03:01:49;;;;;;;3.42;2.20;;;;;;;8.23;59.07;100139.56;4917719;29;20048;-87
2023/12/21 03:04:18;;;;;;;3.35;2.13;;;;;;;8.23;59.38;100134.13;4918823;29;20048;-86
2023/12/21 03:06:46;;;;;;;2.97;1.88;;;;;;;8.22;58.88;100123.34;4918883;29;20561;-86
2023/12/21 03:09:14;;;;;;;3.80;2.08;;;;;;;8.24;59.36;100126.81;4921240;29;20044;-86
2023/12/21 03:11:42;;;;;;;3.70;1.90;;;;;;;8.22;58.91;100121.50;4918677;29;20057;-86
2023/12/21 03:14:11;;;;;;;4.28;2.08;;;;;;;8.23;58.91;100120.50;4919264;29;20047;-86
2023/12/21 03:16:40;;;;;;;3.90;1.85;;;;;;;8.26;58.97;100130.25;4921375;29;20422;-87
2023/12/21 03:19:09;;;;;;;3.72;1.80;;;;;;;8.25;59.08;100129.41;4917418;29;20413;-88
2023/12/21 03:21:37;;;;;;;3.50;2.13;;;;;;;8.24;59.37;100130.41;4924400;29;20048;-86
2023/12/21 03:24:07;;;;;;;3.38;1.90;;;;;;;8.26;59.04;100119.34;4940760;29;20023;-86
2023/12/21 03:26:35;;;;;;;2.72;1.90;;;;;;;8.26;59.25;100120.19;4938299;29;20054;-85
2023/12/21 03:29:03;;;;;;;3.95;2.10;;;;;;;8.23;58.95;100109.59;4935256;29;20056;-86
2023/12/21 03:31:32;;;;;;;4.70;2.08;;;;;;;8.24;59.29;100094.97;4932441;29;20378;-86
2023/12/21 03:34:02;;;;;;;3.53;2.00;;;;;;;8.25;59.42;100074.88;4935453;29;20497;-86
2023/12/21 03:36:31;;;;;;;3.05;2.17;;;;;;;8.27;59.18;100077.44;4917266;29;20107;-87
2023/12/21 03:38:59;;;;;;;4.35;2.30;;;;;;;8.23;59.17;100070.56;4927742;29;20450;-87
2023/12/21 03:41:28;;;;;;;4.95;2.30;;;;;;;8.26;59.40;100060.22;4917494;29;20042;-87
2023/12/21 03:43:57;;;;;;;4.03;2.00;;;;;;;8.28;59.14;100049.19;4935038;29;20047;-87
2023/12/21 03:46:25;;;;;;;4.78;2.47;;;;;;;8.25;59.21;100022.22;4920538;29;20050;-87
2023/12/21 03:48:53;;;;;;;5.55;2.47;;;;;;;8.27;59.02;100029.25;4921536;29;20138;-86
2023/12/21 03:51:23;;;;;;;5.00;2.30;;;;;;;8.26;59.19;100019.34;4917599;29;20473;-87
2023/12/21 03:53:51;;;;;;;3.97;2.63;;;;;;;8.26;59.35;100019.34;4917507;29;20051;-87
2023/12/21 03:56:20;;;;;;;4.53;2.65;;;;;;;8.25;59.13;100020.38;4922456;29;20052;-87
2023/12/21 03:58:48;;;;;;;3.53;2.25;;;;;;;8.27;59.13;100014.75;4908620;29;20040;-87
2023/12/21 04:01:24;;;;;;;5.88;2.50;;;;;;;8.31;59.38;100027.13;4921898;29;20440;-86
2023/12/21 04:03:52;;;;;;;4.63;2.53;;;;;;;8.27;59.17;100025.66;4918998;29;20166;-87
2023/12/21 04:06:20;;;;;;;4.85;2.70;;;;;;;8.27;59.11;100012.88;4921336;29;20565;-87
2023/12/21 04:08:54;;;;;;;4.63;2.55;;;;;;;8.28;59.48;100000.97;4916226;29;20521;-86
2023/12/21 04:11:22;;;;;;;5.30;2.55;;;;;;;8.28;59.10;100000.97;4934013;29;20055;-86
2023/12/21 04:13:50;;;;;;;6.18;2.33;;;;;;;8.28;59.37;99978.31;4913639;29;20091;-86
2023/12/21 04:16:18;;;;;;;3.60;2.15;;;;;;;8.29;59.24;99977.31;4917372;29;20074;-87
2023/12/21 04:18:47;;;;;;;4.18;2.13;;;;;;;8.27;59.39;99974.72;4911926;29;20040;-86
2023/12/21 04:21:15;;;;;;;4.82;2.00;;;;;;;8.29;59.30;99978.19;4916558;29;20051;-85
2023/12/21 04:23:43;;;;;;;3.10;1.77;;;;;;;8.31;59.06;99958.97;4914732;29;20051;-86
2023/12/21 04:26:20;;;;;;;2.88;1.83;;;;;;;8.34;59.72;99958.69;4915352;29;20098;-86
2023/12/21 04:28:48;;;;;;;3.78;1.70;;;;;;;8.28;59.60;99960.09;4923800;29;20052;-87
2023/12/21 04:31:20;;;;;;;3.45;2.00;;;;;;;8.33;59.54;99965.13;4917364;29;20044;-86
2023/12/21 04:33:50;;;;;;;3.67;1.70;;;;;;;8.30;59.45;99966.28;4918242;29;20046;-86
2023/12/21 04:36:19;;;;;;;3.17;1.70;;;;;;;8.31;59.60;99954.38;4915315;29;20044;-85
2023/12/21 04:38:55;;;;;;;3.53;1.73;;;;;;;8.32;59.16;99949.78;4925278;29;20051;-86
2023/12/21 04:41:25;;;;;;;3.53;1.70;;;;;;;8.34;59.47;99951.34;4926622;29;20526;-87
2023/12/21 04:43:53;;;;;;;3.22;1.80;;;;;;;8.33;59.64;99949.66;4919222;29;20043;-86
2023/12/21 04:46:22;;;;;;;2.53;1.50;;;;;;;8.34;59.44;99934.16;4925477;29;20043;-87
2023/12/21 04:48:51;;;;;;;2.88;1.50;;;;;;;8.34;59.08;99934.16;4919131;29;20048;-87
2023/12/21 04:51:19;;;;;;;2.78;1.50;;;;;;;8.33;59.29;99921.53;4934376;29;20060;-86
2023/12/21 04:53:48;;;;;;;2.70;1.38;;;;;;;8.32;59.51;99926.09;4921312;29;20031;-86
2023/12/21 04:56:16;;;;;;;3.05;1.63;;;;;;;8.35;59.53;99927.66;4923775;29;20043;-87
2023/12/21 04:58:47;;;;;;;2.70;1.40;;;;;;;8.36;59.41;99925.81;4924928;29;20066;-88
2023/12/21 05:01:15;;;;;;;3.25;1.33;;;;;;;8.33;59.28;99919.66;4920496;29;20163;-87
2023/12/21 05:03:43;;;;;;;2.83;1.48;;;;;;;8.34;59.76;99909.63;4918846;29;20059;-87
2023/12/21 05:06:12;;;;;;;2.80;1.52;;;;;;;8.34;59.39;99901.44;4935525;29;20059;-87
2023/12/21 05:08:40;;;;;;;3.80;1.55;;;;;;;8.33;59.26;99875.19;4938923;29;20135;-87
2023/12/21 05:11:08;;;;;;;2.20;1.10;;;;;;;8.34;59.20;99877.72;4935566;29;20039;-87
2023/12/21 05:13:39;;;;;;;2.58;1.10;;;;;;;8.32;59.45;99871.59;4927738;29;20509;-87
2023/12/21 05:16:10;;;;;;;2.40;1.20;;;;;;;8.32;59.36;99871.59;4923772;29;20035;-87
2023/12/21 05:18:38;;;;;;;2.85;1.35;;;;;;;8.34;59.61;99872.28;4919749;29;20059;-86
2023/12/21 05:21:09;;;;;;;3.58;1.35;;;;;;;8.34;59.39;99855.91;4920845;29;20054;-87
2023/12/21 05:23:37;;;;;;;2.63;1.20;;;;;;;8.32;59.32;99848.91;4920470;29;20123;-87
2023/12/21 05:26:10;;;;;;;2.50;1.42;;;;;;;8.37;59.83;99843.88;4916463;29;20052;-86
2023/12/21 05:28:39;;;;;;;3.10;1.40;;;;;;;8.34;59.51;99849.63;4921061;29;20517;-87
2023/12/21 05:31:08;;;;;;;3.42;1.48;;;;;;;8.35;59.82;99845.88;4923205;29;20067;-87
2023/12/21 05:33:40;;;;;;;3.22;1.48;;;;;;;8.37;59.39;99843.00;4920523;29;20050;-87
2023/12/21 05:36:09;;;;;;;3.90;1.63;;;;;;;8.35;59.40;99837.69;4933134;29;20052;-87
2023/12/21 05:38:37;;;;;;;4.03;1.60;;;;;;;8.37;60.07;99826.66;4939278;28;20114;-84
2023/12/21 05:41:06;;;;;;;4.55;1.63;;;;;;;8.37;60.61;99823.94;4921230;29;20502;-87
2023/12/21 05:43:34;;;;;;;3.60;1.92;;;;;;;8.39;59.91;99808.28;4919729;29;20047;-87
2023/12/21 05:46:02;;;;;;;3.40;1.55;;;;;;;8.43;60.24;99810.56;4922095;29;20074;-86
2023/12/21 05:48:30;;;;;;;3.13;1.85;;;;;;;8.43;59.89;99813.28;4922325;29;20047;-87
2023/12/21 05:51:01;;;;;;;5.57;2.22;;;;;;;8.49;59.73;99812.72;4920938;29;20059;-87
2023/12/21 05:53:32;;;;;;;5.15;1.70;;;;;;;8.51;59.67;99818.00;4923923;29;20043;-87
2023/12/21 05:56:06;;;;;;;4.05;1.63;;;;;;;8.49;59.87;99799.09;4923157;29;20090;-88
2023/12/21 05:58:35;;;;;;;3.80;1.70;;;;;;;8.52;59.55;99798.78;4918923;29;20560;-87
2023/12/21 06:01:04;;;;;;;2.88;1.80;;;;;;;8.52;59.62;99800.66;4915171;29;20576;-87
2023/12/21 06:03:36;;;;;;;4.13;1.90;;;;;;;8.57;59.66;99806.53;4917663;29;20048;-87
2023/12/21 06:06:06;;;;;;;4.20;2.00;;;;;;;8.55;59.46;99809.41;4920676;29;20055;-86
2023/12/21 06:08:34;;;;;;;4.40;2.00;;;;;;;8.55;59.60;99808.53;4918959;29;20056;-86
2023/12/21 06:11:03;;;;;;;5.45;2.10;;;;;;;8.55;59.80;99798.50;4922033;29;20549;-87
2023/12/21 06:13:33;;;;;;;4.90;2.10;;;;;;;8.57;59.39;99798.34;4921369;29;20065;-86
2023/12/21 06:16:02;;;;;;;4.65;2.00;;;;;;;8.58;59.41;99791.91;4919293;29;20051;-87
2023/12/21 06:18:30;;;;;;;6.97;2.72;;;;;;;8.56;59.45;99789.31;4919226;29;20055;-88
2023/12/21 06:21:06;;;;;;;5.82;2.33;;;;;;;8.57;59.85;99791.03;4920421;29;20055;-87
2023/12/21 06:23:38;;;;;;;5.25;2.38;;;;;;;8.56;59.75;99802.09;4919357;29;20054;-87
2023/12/21 06:26:06;;;;;;;6.75;2.53;;;;;;;8.58;59.93;99802.81;4930683;29;20213;-87
2023/12/21 06:28:38;;;;;;;5.72;2.42;;;;;;;8.57;59.92;99790.19;4933396;29;20044;-87
2023/12/21 06:31:06;;;;;;;5.22;2.35;;;;;;;8.59;59.94;99793.59;4917002;29;20452;-87
2023/12/21 06:33:35;;;;;;;7.47;2.47;;;;;;;8.58;59.42;99779.13;4919425;29;20060;-87
2023/12/21 06:36:03;;;;;;;4.03;2.15;;;;;;;8.59;59.93;99780.81;4918766;29;20395;-87
2023/12/21 06:38:33;;;;;;;7.55;2.63;;;;;;;8.59;59.45;99767.19;4917246;29;20047;-87
2023/12/21 06:41:02;;;;;;;5.03;2.20;;;;;;;8.58;59.83;99768.22;4918433;29;20095;-87
2023/12/21 06:43:30;;;;;;;5.60;2.40;;;;;;;8.60;59.69;99765.31;4930010;29;20063;-87
2023/12/21 06:45:59;;;;;;;5.28;2.38;;;;;;;8.60;59.72;99743.50;4936779;29;20075;-85
2023/12/21 06:48:27;;;;;;;6.63;2.35;;;;;;;8.61;59.91;99746.09;4939232;29;20207;-86
2023/12/21 06:50:58;;;;;;;6.70;2.33;;;;;;;8.63;59.42;99751.41;4956501;28;20043;-87
2023/12/21 06:53:29;;;;;;;5.80;2.15;;;;;;;8.62;59.47;99750.53;4938637;28;20040;-86
2023/12/21 06:56:00;;;;;;;5.70;2.30;;;;;;;8.63;59.93;99733.16;4935128;29;20043;-88
2023/12/21 06:58:50;;;;;;;5.35;2.10;;;;;;;8.64;59.87;99739.47;4933448;29;20054;-87
2023/12/21 07:01:25;;;;;;;7.70;3.03;;;;;;;8.65;59.60;99731.16;4917536;29;20035;-88
2023/12/21 07:03:55;;;;;;;5.10;2.00;;;;;;;8.65;59.54;99738.47;4917602;29;20055;-88
2023/12/21 07:09:17;;;;;;;5.78;2.50;;;;;;;8.64;59.62;99753.97;4929410;29;20059;-87
2023/12/21 07:15:12;;;;;;;6.60;2.20;;;;;;;8.66;59.93;99745.66;4933305;29;20054;-87
2023/12/21 07:17:45;;;;;;;6.82;3.08;;;;;;;8.66;59.80;99738.34;4917352;29;20134;-87
2023/12/21 07:20:15;;;;;;;4.80;2.30;;;;;;;8.69;59.39;99742.59;4918848;29;20051;-87
2023/12/21 07:22:48;;;;;;;6.35;2.35;;;;;;;8.69;59.65;99726.25;4915710;29;20074;-87
2023/12/21 07:25:17;;;;;;;6.47;2.58;;;;;;;8.66;60.02;99713.78;4912629;29;20050;-87
2023/12/21 07:27:47;;;;;;;4.60;2.17;;;;;;;8.71;59.45;99706.00;4919109;29;20054;-87
2023/12/21 07:30:20;;;;;;;4.53;2.28;;;;;;;8.70;59.96;99685.19;4916127;29;20058;-88
2023/12/21 07:32:58;;;;;;;4.95;2.20;;;;;;;8.72;59.74;99674.13;4919595;29;20127;-88
2023/12/21 07:38:40;;;;;;;5.85;2.50;;;;;;;8.71;59.72;99651.44;4914922;29;20055;-88
2023/12/21 07:41:11;;;;;;;5.65;2.55;;;;;;;8.72;59.70;99646.84;4918560;29;20127;-87
2023/12/21 07:43:44;;;;;;;5.28;2.63;;;;;;;8.73;59.90;99640.38;4916302;29;20040;-87
2023/12/21 07:46:15;;;;;;;5.03;2.30;;;;;;;8.71;59.83;99629.63;4918557;29;20638;-87
2023/12/21 07:48:44;;;;;;;4.50;2.22;;;;;;;8.76;59.64;99625.56;4917085;29;20040;-87
2023/12/21 07:51:12;;;;;;;6.03;2.60;;;;;;;8.75;59.44;99604.78;4918048;29;20047;-87
2023/12/21 07:53:44;;;;;;;7.57;2.55;;;;;;;8.75;59.53;99602.06;4914360;29;20039;-88
2023/12/21 07:56:15;;;;;;;6.55;2.78;;;;;;;8.76;59.41;99593.69;4914095;29;20051;-87
2023/12/21 07:58:53;;;;;;;7.18;2.70;;;;;;;8.79;59.48;99587.06;4917601;29;20067;-87
2023/12/21 08:01:23;;;;;;;7.32;2.20;;;;;;;8.77;59.73;99592.69;4918928;29;20044;-87
2023/12/21 08:03:52;;;;;;;5.32;2.47;;;;;;;8.79;59.96;99585.22;4917451;29;20067;-87
2023/12/21 08:06:30;;;;;;;6.75;2.28;;;;;;;8.81;59.96;99588.66;4920435;29;20063;-88
2023/12/21 08:09:14;;;;;;;5.65;1.90;;;;;;;8.78;59.96;99585.34;4911669;29;20048;-87
2023/12/21 08:11:48;;;;;;;8.13;2.85;;;;;;;8.79;59.41;99563.38;4916407;29;20039;-88
2023/12/21 08:14:20;;;;;;;5.50;2.17;;;;;;;8.82;60.03;99574.00;4921263;29;20047;-87
2023/12/21 08:16:56;;;;;;;5.60;2.20;;;;;;;8.84;59.48;99569.22;4918144;29;20046;-87
2023/12/21 08:23:32;;;;;;;4.90;2.15;;;;;;;8.78;59.97;99534.38;4901684;29;20060;-73
2023/12/21 08:26:00;;;;;;;5.50;2.30;;;;;;;8.82;59.57;99554.03;4902329;29;20052;-73
2023/12/21 08:28:29;;;;;;;5.47;2.30;;;;;;;8.81;59.93;99542.28;4891175;29;20532;-73
2023/12/21 08:31:00;;;;;;;6.45;2.08;;;;;;;8.83;59.95;99548.44;4900463;29;20135;-72
2023/12/21 08:33:29;;;;;;;6.68;2.45;;;;;;;8.83;59.37;99548.44;4886201;29;20529;-72
2023/12/21 08:35:58;;;;;;;6.20;2.47;;;;;;;8.85;59.57;99540.06;4907197;29;20051;-72
2023/12/21 08:38:26;;;;;;;6.38;1.92;;;;;;;8.84;59.88;99527.44;4886530;29;20045;-72
2023/12/21 08:40:54;;;;;;;4.70;2.20;;;;;;;8.85;59.93;99532.75;4885487;29;20040;-72
2023/12/21 08:43:22;;;;;;;5.03;2.10;;;;;;;8.85;59.88;99526.44;4898304;29;20055;-72
2023/12/21 08:45:50;;;;;;;4.10;1.88;;;;;;;8.86;60.12;99526.28;4909091;29;20048;-73
2023/12/21 08:48:19;;;;;;;4.82;2.15;;;;;;;8.86;59.98;99517.22;4898845;29;20052;-73
2023/12/21 08:50:47;;;;;;;3.97;1.95;;;;;;;8.86;59.51;99519.97;4902829;29;20049;-71
2023/12/21 08:53:15;;;;;;;4.43;1.88;;;;;;;8.85;59.46;99508.19;4904761;29;20052;-72
2023/12/21 08:55:44;;;;;;;5.15;2.30;;;;;;;8.85;59.55;99510.91;4905218;29;20099;-72
2023/12/21 08:58:12;;;;;;;4.47;1.60;;;;;;;8.85;59.83;99501.88;4884930;29;20052;-72
2023/12/21 09:00:40;;;;;;;5.05;2.05;;;;;;;8.84;59.79;99503.75;4903384;29;20052;-72
2023/12/21 09:03:08;;;;;;;6.35;1.80;;;;;;;8.84;59.87;99487.38;4897182;29;20526;-72
2023/12/21 09:05:38;;;;;;;5.43;1.80;;;;;;;8.84;59.65;99486.50;4902978;29;20056;-71
2023/12/21 09:08:07;;;;;;;3.85;1.60;;;;;;;8.82;59.76;99485.84;4890421;29;20897;-71
2023/12/21 09:10:35;;;;;;;3.15;1.60;;;;;;;8.83;59.95;99479.38;4884725;29;20136;-71
2023/12/21 09:13:03;;;;;;;3.22;1.50;;;;;;;8.83;60.02;99472.06;4902910;29;20418;-71
2023/12/21 09:15:32;;;;;;;5.53;1.73;;;;;;;8.82;59.74;99466.75;4888759;29;20062;-71
2023/12/21 09:18:00;;;;;;;3.40;1.38;;;;;;;8.82;59.98;99464.88;4902239;29;20067;-71
2023/12/21 09:20:28;;;;;;;2.53;1.33;;;;;;;8.82;60.04;99462.16;4888322;29;20048;-71
2023/12/21 09:22:57;;;;;;;3.25;1.50;;;;;;;8.84;59.84;99460.09;4908987;29;20108;-71
2023/12/21 09:25:25;;;;;;;2.78;1.23;;;;;;;8.83;60.00;99461.13;4911303;29;20040;-71
2023/12/21 09:27:54;;;;;;;3.45;1.40;;;;;;;8.83;60.16;99447.50;4903211;29;20064;-71
2023/12/21 09:30:25;;;;;;;2.72;1.13;;;;;;;8.83;60.41;99433.84;4904263;29;20072;-71
2023/12/21 09:32:53;;;;;;;2.65;1.20;;;;;;;8.83;60.06;99438.47;4886534;29;20047;-70
2023/12/21 09:35:22;;;;;;;2.50;1.30;;;;;;;8.85;60.22;99436.41;4890491;29;20059;-71
2023/12/21 09:37:50;;;;;;;3.10;1.30;;;;;;;8.86;59.90;99417.16;4886746;29;20044;-73
2023/12/21 09:40:20;;;;;;;1.95;0.95;;;;;;;8.88;60.33;99430.63;4906825;29;20076;-73
2023/12/21 09:42:51;;;;;;;2.95;1.20;;;;;;;8.88;60.30;99428.78;4910557;29;20704;-73
2023/12/21 09:45:32;;;;;;;2.80;1.02;;;;;;;8.88;60.39;99433.38;4911429;29;20044;-72
2023/12/21 09:48:00;;;;;;;2.75;1.40;;;;;;;8.91;60.46;99419.41;4909190;29;20066;-73
2023/12/21 09:50:29;;;;;;;2.90;1.30;;;;;;;8.92;60.45;99419.25;4908457;29;20052;-73
2023/12/21 09:52:59;;;;;;;2.33;1.10;;;;;;;8.93;60.01;99420.94;4907121;29;20055;-73
2023/12/21 09:55:31;;;;;;;2.03;1.10;;;;;;;8.96;59.94;99411.59;4896921;29;20541;-72
2023/12/21 09:58:00;;;;;;;3.15;1.30;;;;;;;8.93;60.04;99425.56;4907672;29;20437;-72
2023/12/21 10:00:29;;;;;;;3.40;1.40;;;;;;;8.93;60.27;99412.78;4907931;29;20063;-72
2023/12/21 10:02:58;;;;;;;2.53;1.10;;;;;;;8.94;60.54;99410.91;4912970;29;20048;-72
2023/12/21 10:05:27;;;;;;;1.85;1.10;;;;;;;8.94;60.67;99409.03;4906257;29;20374;-71
2023/12/21 10:07:55;;;;;;;3.03;1.40;;;;;;;8.97;60.41;99408.72;4899953;29;20833;-73
2023/12/21 10:10:23;;;;;;;3.03;1.40;;;;;;;8.98;60.25;99404.13;4905056;29;20613;-73
2023/12/21 10:12:52;;;;;;;1.75;0.98;;;;;;;9.00;60.52;99388.47;4906559;29;20482;-74
2023/12/21 10:15:21;;;;;;;2.13;1.08;;;;;;;8.98;60.29;99396.78;4911286;29;20458;-73
2023/12/21 10:17:49;;;;;;;2.05;1.10;;;;;;;8.99;60.27;99387.59;4897651;29;20047;-73
2023/12/21 10:20:17;;;;;;;1.98;1.05;;;;;;;9.01;60.27;99385.53;4910171;29;20044;-72
2023/12/21 10:22:46;;;;;;;4.18;1.30;;;;;;;9.00;60.76;99392.00;4909787;29;20076;-72
2023/12/21 10:25:14;;;;;;;2.03;0.90;;;;;;;9.01;60.56;99373.75;4908218;29;20048;-73
2023/12/21 10:27:54;;;;;;;2.20;1.10;;;;;;;9.04;60.91;99387.09;4905784;29;20044;-73
2023/12/21 10:30:23;;;;;;;2.08;0.98;;;;;;;9.03;60.56;99383.50;4886232;29;20051;-72
2023/12/21 10:32:52;;;;;;;1.90;1.00;;;;;;;9.03;60.64;99374.47;4893632;29;20048;-73
2023/12/21 10:35:25;;;;;;;2.60;1.00;;;;;;;9.05;60.41;99364.25;4901153;29;20516;-73
2023/12/21 10:37:53;;;;;;;2.15;1.00;;;;;;;9.05;60.25;99370.56;4907286;29;20606;-73
2023/12/21 10:40:22;;;;;;;2.28;1.00;;;;;;;9.07;60.32;99356.78;4888963;29;20222;-72
2023/12/21 10:42:52;;;;;;;2.13;0.95;;;;;;;9.08;60.43;99353.84;4909471;29;20056;-73
2023/12/21 10:45:23;;;;;;;1.75;0.90;;;;;;;9.10;60.42;99340.91;4893110;29;20147;-72
2023/12/21 10:48:07;;;;;;;1.75;1.10;;;;;;;9.12;60.50;99312.59;4910817;29;20098;-73
2023/12/21 10:50:37;;;;;;;3.03;1.30;;;;;;;9.13;60.73;99319.78;4902869;29;20051;-72
2023/12/21 10:53:06;;;;;;;1.90;1.30;;;;;;;9.11;60.72;99322.66;4909119;29;20076;-73
2023/12/21 10:55:35;;;;;;;2.88;1.20;;;;;;;9.14;60.45;99310.56;4908604;29;20067;-73
2023/12/21 10:58:06;;;;;;;2.28;1.30;;;;;;;9.15;60.80;99310.41;4909751;29;20048;-72
2023/12/21 11:00:36;;;;;;;2.22;1.30;;;;;;;9.17;61.02;99312.97;4903789;29;20040;-73
2023/12/21 11:03:06;;;;;;;3.85;1.30;;;;;;;9.18;60.83;99304.63;4907562;29;20052;-72
2023/12/21 11:05:35;;;;;;;2.67;1.30;;;;;;;9.19;60.73;99303.59;4913074;29;20048;-73
2023/12/21 11:08:04;;;;;;;3.33;1.40;;;;;;;9.21;60.35;99312.50;4906035;29;20048;-73
2023/12/21 11:10:33;;;;;;;2.13;1.20;;;;;;;9.21;60.88;99307.03;4902139;29;20446;-75
2023/12/21 11:13:01;;;;;;;2.50;1.30;;;;;;;9.22;60.52;99300.56;4906869;29;20140;-74
2023/12/21 11:15:30;;;;;;;2.22;1.30;;;;;;;9.24;60.38;99309.44;4895244;29;20656;-72
2023/12/21 11:18:05;;;;;;;3.85;1.50;;;;;;;9.27;61.06;99306.38;4891791;29;20045;-73
2023/12/21 11:20:39;;;;;;;4.10;1.75;;;;;;;9.28;60.69;99301.75;4888509;29;20050;-74
2023/12/21 11:23:15;;;;;;;3.22;1.67;;;;;;;9.28;60.97;99290.84;4910236;29;20138;-74
2023/12/21 11:25:43;;;;;;;2.40;1.70;;;;;;;9.29;60.56;99282.50;4905587;29;20565;-65
2023/12/21 11:28:11;;;;;;;4.30;1.88;;;;;;;9.31;60.86;99294.13;4904850;29;20044;-62
2023/12/21 11:30:39;;;;;;;3.35;1.70;;;;;;;9.34;61.55;99293.75;4898711;29;20055;-72
2023/12/21 11:33:11;;;;;;;3.08;1.70;;;;;;;9.40;61.29;99293.16;4908598;29;20052;-73
2023/12/21 11:35:39;;;;;;;2.90;1.70;;;;;;;9.42;60.95;99298.44;4888775;29;20502;-72
2023/12/21 11:38:07;;;;;;;3.65;1.88;;;;;;;9.47;61.33;99298.81;4886829;29;20135;-74
2023/12/21 11:40:38;;;;;;;3.65;1.90;;;;;;;9.51;60.69;99289.25;4903995;29;20036;-73
2023/12/21 11:43:08;;;;;;;3.22;1.98;;;;;;;9.54;61.19;99280.75;4890740;29;20036;-76
2023/12/21 11:45:38;;;;;;;6.00;2.10;;;;;;;9.56;60.46;99284.16;4903512;29;20145;-73
2023/12/21 11:48:16;;;;;;;2.78;1.80;;;;;;;9.60;60.88;99271.00;4903874;29;20047;-72
2023/12/21 11:50:45;;;;;;;3.25;1.83;;;;;;;9.58;60.44;99265.72;4897637;29;20143;-73
2023/12/21 11:53:17;;;;;;;3.38;1.83;;;;;;;9.57;60.92;99257.72;4887702;29;20660;-72
2023/12/21 11:55:51;;;;;;;3.28;1.92;;;;;;;9.62;60.79;99256.19;4905876;29;20056;-71
2023/12/21 11:58:22;;;;;;;2.60;1.77;;;;;;;9.65;60.46;99258.59;4886279;29;20052;-71
2023/12/21 12:00:52;;;;;;;3.28;1.80;;;;;;;9.66;60.80;99262.19;4899535;29;20522;-72
2023/12/21 12:03:23;;;;;;;3.40;1.80;;;;;;;9.69;60.51;99268.13;4903973;29;20040;-71